Time;durP1;ratioP1;P1;durP2;ratioP2;P2;SDS_P1;SDS_P2;PMS_P1;PMS_P2;Temp;Humidity;BMP_temperature;BMP_pressure;BME280_temperature;BME280_humidity;BME280_pressure;Samples;Min_cycle;Max_cycle;Signal;HPM_P1;HPM_P2
2023/07/07 00:02:14;;;;;;;1.17;1.08;;;22.10;67.20;;;;;;5043591;28;20399;-74
2023/07/07 00:04:39;;;;;;;1.50;1.25;;;22.10;67.30;;;;;;5032986;28;20128;-75
2023/07/07 00:07:05;;;;;;;0.70;0.70;;;22.10;67.20;;;;;;5033521;28;20033;-74
2023/07/07 00:09:31;;;;;;;0.80;0.80;;;22.10;67.20;;;;;;5031319;28;20069;-75
2023/07/07 00:11:57;;;;;;;0.98;0.98;;;22.10;67.30;;;;;;5031689;28;20056;-75
2023/07/07 00:14:22;;;;;;;1.20;0.90;;;22.10;67.20;;;;;;5029213;28;20141;-75
2023/07/07 00:16:48;;;;;;;0.95;0.80;;;22.10;67.20;;;;;;5043480;28;20188;-75
2023/07/07 00:19:14;;;;;;;0.60;0.60;;;22.10;67.20;;;;;;5036465;28;20411;-74
2023/07/07 00:21:40;;;;;;;0.75;0.75;;;22.10;67.20;;;;;;5047818;28;20045;-75
2023/07/07 00:24:07;;;;;;;0.82;0.82;;;22.10;67.30;;;;;;5025846;28;20122;-75
2023/07/07 00:26:32;;;;;;;0.90;0.90;;;22.10;67.20;;;;;;5047315;28;20036;-74
2023/07/07 00:28:58;;;;;;;0.80;0.80;;;22.10;67.10;;;;;;5034165;28;20048;-75
2023/07/07 00:31:24;;;;;;;0.73;0.73;;;22.10;67.10;;;;;;5027769;28;20049;-75
2023/07/07 00:33:49;;;;;;;0.80;0.80;;;22.10;66.90;;;;;;5011339;28;20081;-74
2023/07/07 00:36:15;;;;;;;0.80;0.80;;;22.10;67.00;;;;;;5023369;28;20095;-75
2023/07/07 00:38:40;;;;;;;1.00;0.88;;;22.10;67.10;;;;;;5010459;28;20175;-75
2023/07/07 00:41:06;;;;;;;2.40;0.70;;;22.10;67.10;;;;;;5045562;28;20041;-75
2023/07/07 00:43:32;;;;;;;0.70;0.70;;;22.10;67.10;;;;;;5014163;28;20046;-74
2023/07/07 00:45:58;;;;;;;0.63;0.63;;;22.10;67.10;;;;;;5016646;28;20560;-74
2023/07/07 00:48:44;;;;;;;0.63;0.63;;;22.10;67.10;;;;;;5024003;28;20041;-74
2023/07/07 00:51:21;;;;;;;0.60;0.60;;;22.10;67.00;;;;;;5030991;28;20040;-75
2023/07/07 00:53:48;;;;;;;0.70;0.70;;;22.10;66.90;;;;;;5016838;28;20542;-75
2023/07/07 00:56:19;;;;;;;0.82;0.82;;;22.10;67.00;;;;;;5024235;28;20586;-74
2023/07/07 00:58:44;;;;;;;0.88;0.88;;;22.10;66.90;;;;;;5027119;28;20046;-75
2023/07/07 01:01:14;;;;;;;0.80;0.80;;;22.10;67.00;;;;;;5012062;28;20701;-75
2023/07/07 01:03:48;;;;;;;0.70;0.70;;;22.00;67.00;;;;;;5033839;28;20060;-75
2023/07/07 01:06:15;;;;;;;0.80;0.80;;;22.10;67.10;;;;;;5045045;28;20121;-75
2023/07/07 01:08:42;;;;;;;0.80;0.65;;;22.10;67.00;;;;;;5043167;28;20095;-75
2023/07/07 01:11:08;;;;;;;0.68;0.68;;;22.10;67.00;;;;;;5002347;28;20030;-75
2023/07/07 01:13:34;;;;;;;0.90;0.80;;;22.10;67.00;;;;;;5011874;28;20081;-75
2023/07/07 01:16:11;;;;;;;0.73;0.73;;;22.10;67.70;;;;;;5015252;28;20103;-75
2023/07/07 01:18:47;;;;;;;0.80;0.70;;;22.10;66.90;;;;;;5036814;28;20045;-74
2023/07/07 01:21:29;;;;;;;0.65;0.65;;;22.10;67.00;;;;;;5033529;28;20102;-75
2023/07/07 01:24:19;;;;;;;0.80;0.80;;;22.10;67.10;;;;;;5007448;28;20485;-74
2023/07/07 01:27:06;;;;;;;0.60;0.60;;;22.10;66.90;;;;;;5041352;28;20076;-75
2023/07/07 01:29:46;;;;;;;0.70;0.70;;;22.10;67.10;;;;;;5025151;28;20048;-75
2023/07/07 01:32:16;;;;;;;0.70;0.70;;;22.10;67.10;;;;;;5042076;28;22499;-75
2023/07/07 01:34:41;;;;;;;0.68;0.68;;;22.10;67.10;;;;;;5011021;28;20200;-75
2023/07/07 01:37:07;;;;;;;3.22;0.70;;;22.10;67.10;;;;;;5042619;28;20661;-75
2023/07/07 01:39:32;;;;;;;0.60;0.60;;;22.10;67.10;;;;;;5028224;28;20041;-75
2023/07/07 01:42:09;;;;;;;0.60;0.60;;;22.10;67.10;;;;;;5026357;28;20042;-75
2023/07/07 01:44:41;;;;;;;1.08;0.93;;;22.10;67.10;;;;;;5012740;28;20073;-74
2023/07/07 01:47:22;;;;;;;0.85;0.70;;;22.10;67.10;;;;;;5031783;28;20037;-75
2023/07/07 01:49:50;;;;;;;0.80;0.77;;;22.10;67.10;;;;;;5032381;28;20053;-75
2023/07/07 01:52:24;;;;;;;0.80;0.80;;;22.10;67.10;;;;;;5026115;28;20117;-75
2023/07/07 01:54:53;;;;;;;0.70;0.70;;;22.10;67.10;;;;;;5011796;28;20049;-75
2023/07/07 01:57:19;;;;;;;1.02;0.70;;;22.10;67.10;;;;;;5004903;28;20050;-75
2023/07/07 01:59:44;;;;;;;0.70;0.70;;;22.10;67.20;;;;;;5019993;28;20522;-75
2023/07/07 02:02:10;;;;;;;0.60;0.60;;;22.10;67.10;;;;;;5031589;28;20132;-74
2023/07/07 02:04:36;;;;;;;0.63;0.63;;;22.10;67.20;;;;;;5014109;28;20041;-74
2023/07/07 02:07:01;;;;;;;0.73;0.73;;;22.10;67.00;;;;;;5016866;28;20041;-75
2023/07/07 02:09:27;;;;;;;0.43;0.43;;;22.10;67.00;;;;;;5030846;28;20511;-75
2023/07/07 02:11:52;;;;;;;0.70;0.70;;;22.10;67.00;;;;;;5010560;28;20234;-75
2023/07/07 02:14:18;;;;;;;0.65;0.65;;;22.10;66.90;;;;;;5025486;28;20091;-74
2023/07/07 02:16:44;;;;;;;0.60;0.60;;;22.10;67.00;;;;;;5030067;28;20076;-75
2023/07/07 02:19:09;;;;;;;0.88;0.88;;;22.10;66.90;;;;;;5035298;28;20046;-75
2023/07/07 02:21:35;;;;;;;0.70;0.70;;;22.10;67.00;;;;;;5017054;28;20046;-74
2023/07/07 02:24:00;;;;;;;0.70;0.70;;;22.10;66.90;;;;;;5027915;28;20136;-75
2023/07/07 02:26:26;;;;;;;0.68;0.68;;;22.10;66.90;;;;;;5029550;28;20463;-75
2023/07/07 02:28:51;;;;;;;0.70;0.70;;;22.10;67.00;;;;;;5025084;28;20064;-75
2023/07/07 02:31:17;;;;;;;0.57;0.57;;;22.10;67.00;;;;;;5025918;28;20041;-75
2023/07/07 02:33:43;;;;;;;0.70;0.70;;;22.10;66.80;;;;;;5030140;28;20246;-75
2023/07/07 02:36:09;;;;;;;0.65;0.65;;;22.10;66.90;;;;;;5024884;28;20497;-75
2023/07/07 02:38:37;;;;;;;0.50;0.50;;;22.00;66.90;;;;;;5032051;28;20515;-74
2023/07/07 02:41:03;;;;;;;1.67;0.70;;;22.00;66.80;;;;;;5025600;28;20049;-75
2023/07/07 02:43:28;;;;;;;0.60;0.60;;;22.00;67.70;;;;;;5025129;28;20060;-74
2023/07/07 02:45:54;;;;;;;0.63;0.63;;;22.00;67.60;;;;;;5038038;28;20087;-75
2023/07/07 02:48:20;;;;;;;0.57;0.57;;;22.10;67.60;;;;;;5024238;28;20045;-74
2023/07/07 02:50:54;;;;;;;1.55;0.77;;;22.00;67.60;;;;;;5028852;28;20476;-75
2023/07/07 02:53:19;;;;;;;0.73;0.70;;;22.00;67.90;;;;;;5029894;28;20053;-75
2023/07/07 02:55:45;;;;;;;0.82;0.73;;;22.00;67.80;;;;;;5033956;28;20049;-75
2023/07/07 02:58:11;;;;;;;0.77;0.77;;;22.10;67.90;;;;;;5029228;28;20041;-75
2023/07/07 03:00:37;;;;;;;0.60;0.60;;;22.00;67.60;;;;;;5031268;28;20047;-74
2023/07/07 03:03:02;;;;;;;0.70;0.70;;;22.00;67.80;;;;;;5033862;28;20037;-74
2023/07/07 03:05:31;;;;;;;0.80;0.80;;;22.00;67.80;;;;;;5029650;28;20399;-74
2023/07/07 03:07:56;;;;;;;0.82;0.70;;;22.00;67.70;;;;;;5030874;28;20053;-75
2023/07/07 03:10:22;;;;;;;0.60;0.60;;;22.00;67.50;;;;;;5014226;28;20510;-74
2023/07/07 03:12:47;;;;;;;0.63;0.63;;;22.00;67.60;;;;;;5037948;28;20128;-75
2023/07/07 03:15:13;;;;;;;1.52;0.60;;;22.00;67.50;;;;;;5048702;28;20876;-75
2023/07/07 03:17:39;;;;;;;0.73;0.73;;;22.00;67.70;;;;;;5047943;28;20123;-75
2023/07/07 03:20:07;;;;;;;0.70;0.70;;;22.00;67.50;;;;;;5035881;28;20052;-75
2023/07/07 03:22:33;;;;;;;0.65;0.65;;;22.00;67.50;;;;;;5032065;28;20121;-74
2023/07/07 03:25:00;;;;;;;1.58;0.68;;;22.00;67.60;;;;;;5034937;28;20164;-75
2023/07/07 03:27:26;;;;;;;0.80;0.80;;;22.00;67.30;;;;;;5026972;28;20041;-74
2023/07/07 03:29:51;;;;;;;0.80;0.80;;;22.00;66.70;;;;;;5016575;28;20036;-75
2023/07/07 03:32:17;;;;;;;0.60;0.60;;;22.10;66.40;;;;;;5030010;28;20047;-75
2023/07/07 03:34:43;;;;;;;0.88;0.88;;;22.00;66.40;;;;;;5014709;28;20041;-74
2023/07/07 03:37:09;;;;;;;0.60;0.60;;;22.00;66.60;;;;;;5035609;28;20123;-75
2023/07/07 03:39:35;;;;;;;0.68;0.68;;;22.00;66.50;;;;;;5014985;28;20629;-74
2023/07/07 03:42:01;;;;;;;0.57;0.57;;;22.00;66.60;;;;;;5030416;28;20038;-74
2023/07/07 03:44:26;;;;;;;0.63;0.63;;;22.00;66.60;;;;;;5030634;28;20033;-74
2023/07/07 03:46:52;;;;;;;0.70;0.70;;;22.00;66.50;;;;;;5028484;28;20065;-74
2023/07/07 03:49:17;;;;;;;0.57;0.57;;;22.00;66.50;;;;;;5033324;28;20041;-74
2023/07/07 03:51:43;;;;;;;0.52;0.52;;;22.00;66.60;;;;;;5033724;28;20061;-74
2023/07/07 03:54:08;;;;;;;2.95;0.70;;;22.00;66.50;;;;;;5033670;28;20045;-74
2023/07/07 03:56:34;;;;;;;0.50;0.50;;;22.00;66.60;;;;;;5029103;28;20116;-74
2023/07/07 03:59:00;;;;;;;0.68;0.68;;;22.00;66.60;;;;;;5044010;28;20047;-75
2023/07/07 04:01:25;;;;;;;1.58;0.55;;;22.00;66.50;;;;;;5031403;28;20041;-75
2023/07/07 04:03:51;;;;;;;0.75;0.60;;;22.00;66.50;;;;;;5033071;28;20498;-75
2023/07/07 04:06:17;;;;;;;0.60;0.60;;;22.00;66.60;;;;;;5032142;28;20041;-74
2023/07/07 04:08:42;;;;;;;1.60;0.90;;;22.00;66.50;;;;;;5030961;28;20045;-74
2023/07/07 04:11:12;;;;;;;0.70;0.70;;;22.00;66.50;;;;;;5029479;28;20049;-74
2023/07/07 04:13:39;;;;;;;0.60;0.60;;;22.00;66.30;;;;;;5034168;28;20503;-75
2023/07/07 04:16:13;;;;;;;0.50;0.50;;;22.00;66.30;;;;;;5034859;28;20124;-74
2023/07/07 04:18:39;;;;;;;;;;;21.90;66.20;;;;;;5030643;28;20656;-74
2023/07/07 04:21:06;;;;;;;0.50;0.40;;;22.00;66.30;;;;;;5032560;28;19917;-74
2023/07/07 04:23:33;;;;;;;0.65;0.65;;;22.00;66.40;;;;;;5028524;28;20106;-74
2023/07/07 04:25:58;;;;;;;0.63;0.63;;;22.00;66.40;;;;;;5032301;28;20049;-74
2023/07/07 04:28:24;;;;;;;1.90;0.60;;;22.00;66.30;;;;;;5034141;28;20053;-74
2023/07/07 04:30:53;;;;;;;0.80;0.80;;;22.00;66.40;;;;;;5037785;28;20040;-75
2023/07/07 04:33:19;;;;;;;0.52;0.52;;;22.00;66.40;;;;;;5039158;28;20045;-74
2023/07/07 04:35:49;;;;;;;0.60;0.60;;;22.00;66.40;;;;;;5023228;28;20183;-74
2023/07/07 04:38:15;;;;;;;1.55;0.60;;;22.00;66.20;;;;;;5027206;28;20046;-74
2023/07/07 04:40:40;;;;;;;0.63;0.63;;;22.00;66.20;;;;;;5027244;28;20041;-74
2023/07/07 04:43:06;;;;;;;0.60;0.60;;;22.00;66.20;;;;;;5032312;28;20042;-74
2023/07/07 04:45:33;;;;;;;0.70;0.70;;;22.00;66.20;;;;;;5035202;28;20044;-74
2023/07/07 04:47:59;;;;;;;0.65;0.65;;;21.90;66.10;;;;;;5032627;28;20522;-74
2023/07/07 04:50:24;;;;;;;1.15;0.55;;;21.90;66.10;;;;;;5030007;28;20043;-74
2023/07/07 04:52:50;;;;;;;0.60;0.60;;;22.00;66.10;;;;;;5033931;28;20095;-74
2023/07/07 04:55:15;;;;;;;0.90;0.90;;;21.90;66.20;;;;;;5035665;28;20151;-74
2023/07/07 04:57:41;;;;;;;0.55;0.55;;;21.90;66.30;;;;;;5026023;28;20045;-74
2023/07/07 05:00:08;;;;;;;0.57;0.57;;;22.00;66.50;;;;;;5030431;28;20086;-74
2023/07/07 05:02:35;;;;;;;0.50;0.50;;;21.90;66.20;;;;;;5043761;28;20041;-74
2023/07/07 05:05:01;;;;;;;0.55;0.55;;;21.90;66.10;;;;;;5028534;28;20033;-74
2023/07/07 05:07:28;;;;;;;0.65;0.65;;;21.90;66.20;;;;;;5030952;28;20046;-74
2023/07/07 05:09:54;;;;;;;0.50;0.50;;;22.00;66.30;;;;;;5033221;28;20044;-75
2023/07/07 05:12:20;;;;;;;0.80;0.80;;;21.90;66.20;;;;;;5026509;28;20167;-74
2023/07/07 05:14:45;;;;;;;0.73;0.73;;;21.90;66.20;;;;;;5029088;28;21543;-74
2023/07/07 05:17:11;;;;;;;0.60;0.60;;;21.90;66.30;;;;;;5029169;28;20538;-75
2023/07/07 05:19:36;;;;;;;0.60;0.60;;;22.00;66.20;;;;;;5029866;28;20091;-74
2023/07/07 05:22:02;;;;;;;0.60;0.60;;;21.90;66.00;;;;;;5033538;28;20041;-75
2023/07/07 05:24:28;;;;;;;0.50;0.50;;;21.90;66.00;;;;;;5032603;28;20038;-74
2023/07/07 05:26:53;;;;;;;0.40;0.40;;;21.90;66.10;;;;;;5020168;28;20188;-75
2023/07/07 05:29:20;;;;;;;0.50;0.50;;;21.90;66.10;;;;;;5027458;28;20044;-74
2023/07/07 05:31:45;;;;;;;0.70;0.70;;;21.90;66.00;;;;;;5030871;28;20059;-74
2023/07/07 05:34:11;;;;;;;0.60;0.60;;;21.90;66.00;;;;;;5022994;28;20046;-74
2023/07/07 05:36:37;;;;;;;0.60;0.60;;;21.90;66.00;;;;;;4675956;28;10000542;-74
2023/07/07 05:39:06;;;;;;;1.88;0.95;;;22.00;66.30;;;;;;5037826;28;20048;-74
2023/07/07 05:41:32;;;;;;;1.00;1.00;;;22.00;65.80;;;;;;5021088;28;20041;-74
2023/07/07 05:43:57;;;;;;;1.27;1.17;;;21.90;63.20;;;;;;5020821;28;20636;-74
2023/07/07 05:46:23;;;;;;;1.95;1.75;;;21.70;62.30;;;;;;5027174;28;20080;-74
2023/07/07 05:48:48;;;;;;;1.77;1.67;;;21.70;61.10;;;;;;5011464;28;20496;-74
2023/07/07 05:51:15;;;;;;;1.92;1.83;;;21.60;60.70;;;;;;5006193;28;20053;-73
2023/07/07 05:53:42;;;;;;;1.90;1.80;;;21.60;60.40;;;;;;5035650;28;20038;-74
2023/07/07 05:56:20;;;;;;;1.70;1.60;;;21.60;60.50;;;;;;5022390;28;20077;-74
2023/07/07 05:58:46;;;;;;;1.58;1.48;;;21.50;61.30;;;;;;5030377;28;20088;-73
2023/07/07 06:01:13;;;;;;;2.65;1.88;;;21.50;60.50;;;;;;5033093;28;20041;-73
2023/07/07 06:03:39;;;;;;;1.77;1.67;;;21.50;60.50;;;;;;5025688;28;20053;-74
2023/07/07 06:06:05;;;;;;;1.92;1.40;;;21.40;60.90;;;;;;5020324;28;20080;-73
2023/07/07 06:08:31;;;;;;;1.40;1.30;;;21.50;61.70;;;;;;5026227;28;20484;-74
2023/07/07 06:10:56;;;;;;;1.80;1.70;;;21.40;60.80;;;;;;5024292;28;20511;-74
2023/07/07 06:13:24;;;;;;;1.80;1.70;;;21.40;60.80;;;;;;5025492;28;20065;-74
2023/07/07 06:15:52;;;;;;;2.13;1.45;;;21.40;61.00;;;;;;5031278;28;20119;-73
2023/07/07 06:18:18;;;;;;;1.50;1.40;;;21.40;61.10;;;;;;5025851;28;20076;-73
2023/07/07 06:20:51;;;;;;;1.20;1.00;;;21.30;61.30;;;;;;5006555;28;20493;-73
2023/07/07 06:23:17;;;;;;;1.70;1.60;;;21.30;61.80;;;;;;5012389;28;20061;-73
2023/07/07 06:25:42;;;;;;;1.63;1.50;;;21.30;61.80;;;;;;5003261;28;20052;-73
2023/07/07 06:28:08;;;;;;;1.58;1.48;;;21.30;61.90;;;;;;5027920;28;20446;-73
2023/07/07 06:30:33;;;;;;;1.90;1.80;;;21.30;61.70;;;;;;5023812;28;20053;-73
2023/07/07 06:32:59;;;;;;;2.20;1.95;;;21.30;62.10;;;;;;5029402;28;20525;-73
2023/07/07 06:35:26;;;;;;;3.20;1.92;;;21.30;62.40;;;;;;5025143;28;20026;-73
2023/07/07 06:37:51;;;;;;;1.70;1.60;;;21.30;62.50;;;;;;5041438;28;20056;-73
2023/07/07 06:40:17;;;;;;;1.77;1.67;;;21.30;62.50;;;;;;5024854;28;20212;-73
2023/07/07 06:42:42;;;;;;;3.50;1.50;;;21.30;62.80;;;;;;5030436;28;20086;-73
2023/07/07 06:45:08;;;;;;;1.77;1.67;;;21.30;63.10;;;;;;5031213;28;20069;-73
2023/07/07 06:47:34;;;;;;;1.65;1.55;;;21.30;63.00;;;;;;5043449;28;20418;-74
2023/07/07 06:49:59;;;;;;;1.65;1.55;;;21.30;63.00;;;;;;5027899;28;20079;-74
2023/07/07 06:52:25;;;;;;;1.80;1.70;;;21.30;63.00;;;;;;5028804;28;20038;-73
2023/07/07 06:54:52;;;;;;;2.65;2.20;;;21.30;63.10;;;;;;5033610;28;20415;-73
2023/07/07 06:57:17;;;;;;;1.42;1.33;;;21.30;63.20;;;;;;5028357;28;20045;-73
2023/07/07 06:59:43;;;;;;;2.00;1.77;;;21.30;63.40;;;;;;5048429;28;20053;-74
2023/07/07 07:02:12;;;;;;;1.92;1.83;;;21.30;63.20;;;;;;5040726;28;20045;-74
2023/07/07 07:04:39;;;;;;;2.47;2.13;;;21.30;63.20;;;;;;5003478;28;20052;-72
2023/07/07 07:07:05;;;;;;;1.90;1.80;;;21.30;63.40;;;;;;4998776;28;20041;-75
2023/07/07 07:09:30;;;;;;;1.58;1.52;;;21.20;63.80;;;;;;5029205;28;20056;-74
2023/07/07 07:11:56;;;;;;;1.90;1.80;;;21.30;63.80;;;;;;5024108;28;20042;-74
2023/07/07 07:14:21;;;;;;;2.85;2.10;;;21.30;63.70;;;;;;5026832;28;20056;-75
2023/07/07 07:16:47;;;;;;;1.90;1.80;;;21.20;63.80;;;;;;5020631;28;20038;-74
2023/07/07 07:19:13;;;;;;;1.83;1.73;;;21.30;63.50;;;;;;5028035;28;20596;-74
2023/07/07 07:21:38;;;;;;;1.60;1.52;;;21.30;63.60;;;;;;5029683;28;20033;-74
2023/07/07 07:24:04;;;;;;;2.83;1.70;;;21.30;63.50;;;;;;5025067;28;20056;-75
2023/07/07 07:26:30;;;;;;;1.83;1.73;;;21.30;63.40;;;;;;5030156;28;20491;-74
2023/07/07 07:28:56;;;;;;;2.90;1.90;;;21.30;63.70;;;;;;5029710;28;20558;-74
2023/07/07 07:31:21;;;;;;;1.33;1.23;;;21.40;63.70;;;;;;5025057;28;20042;-74
2023/07/07 07:33:52;;;;;;;2.45;1.90;;;21.40;63.60;;;;;;5026691;28;20042;-74
2023/07/07 07:36:18;;;;;;;2.00;1.90;;;21.30;63.90;;;;;;5023535;28;20081;-74
2023/07/07 07:38:43;;;;;;;1.83;1.73;;;21.40;63.50;;;;;;5041156;28;21794;-74
2023/07/07 07:41:09;;;;;;;2.22;2.03;;;21.40;63.50;;;;;;5026366;28;20798;-74
2023/07/07 07:43:34;;;;;;;2.15;2.05;;;21.40;63.50;;;;;;5008801;28;20160;-74
2023/07/07 07:46:00;;;;;;;1.92;1.83;;;21.40;63.50;;;;;;5039669;28;20099;-74
2023/07/07 07:48:25;;;;;;;1.83;1.73;;;21.40;63.40;;;;;;5021492;28;20049;-74
2023/07/07 07:50:51;;;;;;;1.65;1.55;;;21.40;63.70;;;;;;5027453;28;20569;-73
2023/07/07 07:53:18;;;;;;;1.88;1.77;;;21.40;63.40;;;;;;5027495;28;20103;-74
2023/07/07 07:55:43;;;;;;;2.10;1.90;;;21.40;63.70;;;;;;5025063;28;20037;-74
2023/07/07 07:58:09;;;;;;;1.50;1.40;;;21.40;63.90;;;;;;5029425;28;20102;-74
2023/07/07 08:00:34;;;;;;;1.90;1.80;;;21.50;64.10;;;;;;5024066;28;20045;-74
2023/07/07 08:03:00;;;;;;;2.28;1.73;;;21.50;64.40;;;;;;5026099;28;20046;-74
2023/07/07 08:05:26;;;;;;;1.60;1.55;;;21.50;63.70;;;;;;5045150;28;20040;-74
2023/07/07 08:07:52;;;;;;;1.27;1.27;;;21.50;63.60;;;;;;5019794;28;20049;-75
2023/07/07 08:10:17;;;;;;;1.70;1.60;;;21.60;63.70;;;;;;5031531;28;20040;-74
2023/07/07 08:12:43;;;;;;;2.05;1.80;;;21.70;63.30;;;;;;5028188;28;20054;-75
2023/07/07 08:15:09;;;;;;;2.00;1.90;;;21.70;63.00;;;;;;5023795;28;20045;-75
2023/07/07 08:17:35;;;;;;;1.77;1.67;;;21.80;62.30;;;;;;5005220;28;22118;-74
2023/07/07 08:20:01;;;;;;;5.43;1.75;;;21.80;62.30;;;;;;5032484;28;20451;-74
2023/07/07 08:22:26;;;;;;;1.75;1.65;;;21.80;62.60;;;;;;5012993;28;20044;-74
2023/07/07 08:24:53;;;;;;;1.92;1.83;;;21.80;62.80;;;;;;5024366;28;20053;-74
2023/07/07 08:27:19;;;;;;;1.95;1.85;;;21.90;62.70;;;;;;5025579;28;20037;-74
2023/07/07 08:29:45;;;;;;;2.28;2.15;;;21.90;62.70;;;;;;5026603;28;20029;-74
2023/07/07 08:32:12;;;;;;;1.95;1.80;;;21.90;61.50;;;;;;5046975;28;20033;-75
2023/07/07 08:34:38;;;;;;;1.80;1.70;;;21.90;61.10;;;;;;5021298;28;20038;-74
2023/07/07 08:37:04;;;;;;;2.20;2.10;;;22.00;60.60;;;;;;5025431;28;20046;-74
2023/07/07 08:39:29;;;;;;;2.17;2.08;;;22.00;62.30;;;;;;4993727;28;20052;-74
2023/07/07 08:42:06;;;;;;;1.90;1.80;;;22.10;59.20;;;;;;5021359;28;20045;-74
2023/07/07 08:44:33;;;;;;;2.17;1.98;;;22.10;60.90;;;;;;5035664;28;20106;-74
2023/07/07 08:47:14;;;;;;;1.90;1.80;;;22.10;60.30;;;;;;5031603;28;20038;-74
2023/07/07 08:49:55;;;;;;;1.85;1.75;;;22.10;60.40;;;;;;5048861;28;20065;-74
2023/07/07 08:52:29;;;;;;;2.67;1.63;;;22.20;61.90;;;;;;5005057;28;20110;-74
2023/07/07 08:55:42;;;;;;;2.17;1.80;;;22.20;58.80;;;;;;5040437;28;20056;-74
2023/07/07 08:58:16;;;;;;;2.28;2.15;;;22.30;58.30;;;;;;4935352;28;20063;-74
2023/07/07 09:01:12;;;;;;;1.90;1.80;;;22.30;59.20;;;;;;4954221;28;20055;-74
2023/07/07 09:03:55;;;;;;;2.55;1.83;;;22.30;58.90;;;;;;4930186;28;20533;-75
2023/07/07 09:06:30;;;;;;;2.33;2.20;;;22.40;58.20;;;;;;4920084;28;20533;-74
2023/07/07 09:09:05;;;;;;;2.38;2.28;;;22.40;58.20;;;;;;4921751;28;20155;-74
2023/07/07 09:11:52;;;;;;;2.35;2.17;;;22.50;57.60;;;;;;4938783;28;20186;-74
2023/07/07 09:14:18;;;;;;;2.42;2.22;;;22.60;57.50;;;;;;4921228;28;20051;-76
2023/07/07 09:16:43;;;;;;;2.25;2.05;;;22.60;58.30;;;;;;4927150;28;20095;-74
2023/07/07 09:19:16;;;;;;;2.97;2.78;;;22.60;57.80;;;;;;4906344;28;20044;-75
2023/07/07 09:22:07;;;;;;;3.50;2.85;;;22.60;57.70;;;;;;4925788;28;20553;-75
2023/07/07 09:24:35;;;;;;;2.70;2.35;;;22.70;57.10;;;;;;4928156;28;20132;-75
2023/07/07 09:27:08;;;;;;;2.55;2.40;;;22.70;56.70;;;;;;4905152;28;20529;-75
2023/07/07 09:29:33;;;;;;;2.40;2.30;;;22.70;57.60;;;;;;5010680;28;20102;-76
2023/07/07 09:32:02;;;;;;;2.85;2.60;;;22.80;57.80;;;;;;5026644;28;20529;-76
2023/07/07 09:34:28;;;;;;;3.05;2.75;;;22.80;58.70;;;;;;5025376;28;20412;-76
2023/07/07 09:36:59;;;;;;;2.58;2.35;;;22.90;57.10;;;;;;5062416;28;20463;-76
2023/07/07 09:39:31;;;;;;;2.65;2.45;;;22.90;55.80;;;;;;5033538;28;20045;-76
2023/07/07 09:42:18;;;;;;;2.72;2.63;;;22.90;56.30;;;;;;5028611;28;20068;-76
2023/07/07 09:44:56;;;;;;;2.65;2.42;;;22.90;56.90;;;;;;5037841;28;20041;-74
2023/07/07 09:47:55;;;;;;;2.33;2.22;;;23.00;57.80;;;;;;5022472;28;20064;-75
2023/07/07 09:50:26;;;;;;;2.83;2.63;;;23.00;58.50;;;;;;5013569;28;20048;-77
2023/07/07 09:53:23;;;;;;;2.70;2.50;;;22.80;58.90;;;;;;5029996;28;20025;-75
2023/07/07 09:55:49;;;;;;;2.35;2.15;;;22.80;59.40;;;;;;5025863;28;20113;-75
2023/07/07 09:58:16;;;;;;;2.50;2.30;;;22.80;59.70;;;;;;5062268;28;20509;-76
2023/07/07 10:00:44;;;;;;;2.20;2.10;;;22.80;59.90;;;;;;5071647;28;20406;-76
2023/07/07 10:03:34;;;;;;;2.83;2.63;;;22.80;60.00;;;;;;5046360;28;20045;-77
2023/07/07 10:06:02;;;;;;;2.10;2.00;;;22.80;60.10;;;;;;5018069;28;20037;-76
2023/07/07 10:08:28;;;;;;;2.80;2.60;;;22.80;60.20;;;;;;5030146;28;20167;-75
2023/07/07 10:11:15;;;;;;;2.20;2.10;;;22.80;60.40;;;;;;5032505;28;20132;-76
2023/07/07 10:13:40;;;;;;;2.80;1.90;;;22.80;60.50;;;;;;5028602;28;20080;-76
2023/07/07 10:16:07;;;;;;;2.85;2.65;;;22.80;60.60;;;;;;5020323;28;20073;-75
2023/07/07 10:18:32;;;;;;;2.45;2.05;;;22.80;60.60;;;;;;5049683;28;20048;-75
2023/07/07 10:21:05;;;;;;;2.85;2.42;;;22.80;60.60;;;;;;5038394;28;20029;-76
2023/07/07 10:23:30;;;;;;;2.63;2.42;;;22.90;60.80;;;;;;5055478;28;20049;-75
2023/07/07 10:25:56;;;;;;;2.28;2.17;;;22.90;61.10;;;;;;5049997;28;20124;-76
2023/07/07 10:28:23;;;;;;;2.53;2.35;;;22.90;61.40;;;;;;5051492;28;20151;-74
2023/07/07 10:30:48;;;;;;;2.70;2.47;;;22.90;61.90;;;;;;5048131;28;20123;-76
2023/07/07 10:33:16;;;;;;;2.67;2.47;;;22.90;63.20;;;;;;5037004;28;20120;-76
2023/07/07 10:35:41;;;;;;;2.80;2.60;;;22.90;63.00;;;;;;4995992;28;20049;-75
2023/07/07 10:38:08;;;;;;;2.60;2.40;;;22.90;63.30;;;;;;5004002;28;20103;-75
2023/07/07 10:40:35;;;;;;;2.55;2.28;;;22.90;63.50;;;;;;5038938;28;20050;-75
2023/07/07 10:43:02;;;;;;;2.30;2.05;;;22.90;63.20;;;;;;5031628;28;20060;-75
2023/07/07 10:45:28;;;;;;;1.88;1.77;;;22.90;63.30;;;;;;5008159;28;20055;-74
2023/07/07 10:47:54;;;;;;;2.30;2.20;;;23.00;63.20;;;;;;5044281;28;20037;-79
2023/07/07 10:50:21;;;;;;;2.90;2.30;;;23.00;62.80;;;;;;5043772;28;20036;-77
2023/07/07 10:52:54;;;;;;;2.10;2.00;;;23.00;62.20;;;;;;5037479;28;20048;-77
2023/07/07 10:56:08;;;;;;;2.60;1.85;;;23.00;62.30;;;;;;5028028;28;20061;-77
2023/07/07 10:58:51;;;;;;;2.38;2.28;;;23.00;62.50;;;;;;4970498;28;20043;-77
2023/07/07 11:01:24;;;;;;;2.00;1.90;;;23.00;62.50;;;;;;4974228;28;20615;-77
2023/07/07 11:04:02;;;;;;;1.83;1.73;;;23.00;62.50;;;;;;4975804;28;20046;-77
2023/07/07 11:06:48;;;;;;;2.10;2.00;;;23.00;62.60;;;;;;4957565;28;20563;-77
2023/07/07 11:09:29;;;;;;;2.40;2.30;;;23.00;62.40;;;;;;4930661;28;20587;-77
2023/07/07 11:12:05;;;;;;;2.00;1.90;;;23.00;62.40;;;;;;4956701;28;20050;-77
2023/07/07 11:14:45;;;;;;;1.77;1.67;;;23.00;63.20;;;;;;4958968;28;20567;-77
2023/07/07 11:17:34;;;;;;;1.90;1.80;;;23.00;62.50;;;;;;4973430;28;20426;-77
2023/07/07 11:20:05;;;;;;;2.08;1.98;;;23.00;62.50;;;;;;4877668;29;20511;-77
2023/07/07 11:23:14;;;;;;;2.10;2.00;;;23.00;62.50;;;;;;4877324;29;20049;-77
2023/07/07 11:25:54;;;;;;;2.08;1.98;;;23.00;62.50;;;;;;4861518;29;20100;-77
2023/07/07 11:28:28;;;;;;;1.90;1.80;;;23.00;62.50;;;;;;4879148;29;20164;-77
2023/07/07 11:31:21;;;;;;;1.92;1.77;;;23.00;62.50;;;;;;4883425;29;20044;-77
2023/07/07 11:33:49;;;;;;;1.77;1.70;;;23.00;62.50;;;;;;4890188;28;20080;-77
2023/07/07 11:37:00;;;;;;;2.10;2.00;;;23.00;62.50;;;;;;4973090;28;20067;-78
2023/07/07 11:39:35;;;;;;;2.00;1.90;;;23.00;62.50;;;;;;4926004;28;20039;-77
2023/07/07 11:42:05;;;;;;;1.85;1.75;;;23.00;62.60;;;;;;4955719;28;20494;-76
2023/07/07 11:44:56;;;;;;;1.70;1.60;;;23.00;62.70;;;;;;4953603;28;20126;-75
2023/07/07 11:47:44;;;;;;;1.70;1.60;;;23.00;62.60;;;;;;4592591;28;10000348;-76
2023/07/07 11:50:15;;;;;;;2.15;1.70;;;23.00;62.90;;;;;;4982709;28;20101;-76
2023/07/07 11:52:53;;;;;;;1.75;1.65;;;23.00;63.00;;;;;;4928822;28;20058;-76
2023/07/07 11:55:47;;;;;;;1.90;1.80;;;23.00;63.10;;;;;;4947674;28;20042;-76
2023/07/07 11:58:24;;;;;;;2.05;1.95;;;23.00;63.20;;;;;;5022139;28;20052;-76
2023/07/07 12:00:56;;;;;;;2.00;1.90;;;23.00;63.20;;;;;;5034223;28;20147;-76
2023/07/07 12:03:46;;;;;;;1.80;1.70;;;23.00;63.10;;;;;;5025153;28;20118;-76
2023/07/07 12:06:45;;;;;;;1.50;1.40;;;23.00;63.10;;;;;;5024023;28;20041;-76
2023/07/07 12:09:10;;;;;;;2.42;1.70;;;23.00;63.10;;;;;;5012167;28;20056;-76
2023/07/07 12:11:43;;;;;;;1.95;1.85;;;23.10;62.90;;;;;;5026256;28;20364;-76
2023/07/07 12:14:32;;;;;;;2.65;2.00;;;23.10;63.40;;;;;;5026454;28;20058;-76
2023/07/07 12:16:58;;;;;;;1.77;1.70;;;23.10;63.10;;;;;;5028261;28;20040;-76
2023/07/07 12:19:37;;;;;;;2.00;1.90;;;23.10;63.10;;;;;;5045482;28;20045;-76
2023/07/07 12:22:04;;;;;;;1.65;1.55;;;23.10;63.10;;;;;;5033496;28;20088;-76
2023/07/07 12:24:48;;;;;;;1.75;1.65;;;23.10;63.10;;;;;;5043672;28;20064;-76
2023/07/07 12:27:19;;;;;;;1.40;1.40;;;23.10;63.20;;;;;;5043585;28;20044;-76
2023/07/07 12:29:45;;;;;;;1.90;1.80;;;23.10;63.40;;;;;;5000874;28;20077;-76
2023/07/07 12:32:11;;;;;;;1.90;1.80;;;23.10;63.50;;;;;;5047890;28;20162;-76
2023/07/07 12:34:39;;;;;;;1.90;1.80;;;23.10;63.40;;;;;;5049545;28;20517;-76
2023/07/07 12:37:10;;;;;;;1.80;1.70;;;23.10;63.30;;;;;;5029975;28;20037;-76
2023/07/07 12:39:35;;;;;;;2.15;2.05;;;23.10;63.60;;;;;;5024147;28;20046;-76
2023/07/07 12:42:01;;;;;;;2.25;2.15;;;23.10;63.70;;;;;;5022704;28;20052;-76
2023/07/07 12:44:27;;;;;;;1.80;1.67;;;23.00;63.60;;;;;;5059830;28;20417;-76
2023/07/07 12:46:52;;;;;;;1.90;1.80;;;23.10;63.70;;;;;;5032860;28;20481;-76
2023/07/07 12:49:22;;;;;;;2.00;1.90;;;23.00;63.80;;;;;;5030854;28;20128;-76
2023/07/07 12:51:53;;;;;;;1.70;1.60;;;23.00;63.90;;;;;;5064458;28;20104;-77
2023/07/07 12:54:35;;;;;;;2.20;2.00;;;23.00;63.90;;;;;;5032343;28;20041;-78
2023/07/07 12:57:18;;;;;;;1.70;1.60;;;23.10;63.80;;;;;;5031533;28;20037;-77
2023/07/07 12:59:43;;;;;;;1.75;1.65;;;23.00;64.00;;;;;;5051087;28;20048;-77
2023/07/07 13:02:16;;;;;;;2.30;1.52;;;23.00;64.10;;;;;;5049312;28;20141;-76